sensor_id;sensor_type;location;lat;lon;timestamp;P1;durP1;ratioP1;P2;durP2;ratioP2
20619;SDS011;10469;42.720;23.252;2023-04-09T00:50:19;18.77;;;11.05;;
20619;SDS011;10469;42.720;23.252;2023-04-09T00:52:54;16.40;;;11.98;;
20619;SDS011;10469;42.720;23.252;2023-04-09T00:55:20;25.48;;;15.65;;
20619;SDS011;10469;42.720;23.252;2023-04-09T00:57:47;23.55;;;15.65;;
20619;SDS011;10469;42.720;23.252;2023-04-09T01:00:13;28.35;;;15.88;;
20619;SDS011;10469;42.720;23.252;2023-04-09T01:02:40;24.92;;;16.40;;
20619;SDS011;10469;42.720;23.252;2023-04-09T01:46:27;21.45;;;13.18;;
20619;SDS011;10469;42.720;23.252;2023-04-09T01:48:56;21.00;;;14.82;;
20619;SDS011;10469;42.720;23.252;2023-04-09T01:51:25;14.45;;;10.13;;
20619;SDS011;10469;42.720;23.252;2023-04-09T01:53:51;13.05;;;9.40;;
20619;SDS011;10469;42.720;23.252;2023-04-09T01:56:17;16.27;;;11.20;;
20619;SDS011;10469;42.720;23.252;2023-04-09T01:58:43;18.17;;;11.38;;
20619;SDS011;10469;42.720;23.252;2023-04-09T02:01:11;17.85;;;12.00;;
20619;SDS011;10469;42.720;23.252;2023-04-09T02:03:51;22.77;;;14.02;;
20619;SDS011;10469;42.720;23.252;2023-04-09T02:06:33;24.17;;;14.35;;
20619;SDS011;10469;42.720;23.252;2023-04-09T02:09:17;28.13;;;15.90;;
20619;SDS011;10469;42.720;23.252;2023-04-09T02:37:45;27.98;;;16.63;;
20619;SDS011;10469;42.720;23.252;2023-04-09T02:40:11;25.58;;;16.80;;
20619;SDS011;10469;42.720;23.252;2023-04-09T02:42:37;25.55;;;15.95;;
20619;SDS011;10469;42.720;23.252;2023-04-09T02:45:03;24.05;;;15.68;;
20619;SDS011;10469;42.720;23.252;2023-04-09T02:47:29;26.13;;;16.33;;
20619;SDS011;10469;42.720;23.252;2023-04-09T02:49:55;25.85;;;15.63;;
20619;SDS011;10469;42.720;23.252;2023-04-09T02:52:21;27.02;;;16.75;;
20619;SDS011;10469;42.720;23.252;2023-04-09T02:54:53;28.02;;;16.48;;
20619;SDS011;10469;42.720;23.252;2023-04-09T02:57:18;27.25;;;16.42;;
20619;SDS011;10469;42.720;23.252;2023-04-09T02:59:45;24.17;;;15.88;;
20619;SDS011;10469;42.720;23.252;2023-04-09T03:02:10;31.30;;;17.92;;
20619;SDS011;10469;42.720;23.252;2023-04-09T03:04:37;27.88;;;15.50;;
20619;SDS011;10469;42.720;23.252;2023-04-09T03:07:03;24.70;;;16.27;;
20619;SDS011;10469;42.720;23.252;2023-04-09T03:09:29;26.85;;;16.80;;
20619;SDS011;10469;42.720;23.252;2023-04-09T03:11:55;30.33;;;17.60;;
20619;SDS011;10469;42.720;23.252;2023-04-09T03:14:24;27.10;;;17.27;;
20619;SDS011;10469;42.720;23.252;2023-04-09T03:16:49;27.63;;;17.13;;
20619;SDS011;10469;42.720;23.252;2023-04-09T03:19:15;25.13;;;16.10;;
20619;SDS011;10469;42.720;23.252;2023-04-09T03:21:41;30.25;;;17.30;;
20619;SDS011;10469;42.720;23.252;2023-04-09T03:24:07;27.42;;;17.40;;
20619;SDS011;10469;42.720;23.252;2023-04-09T03:26:33;31.42;;;18.42;;
20619;SDS011;10469;42.720;23.252;2023-04-09T03:29:03;28.55;;;16.83;;
20619;SDS011;10469;42.720;23.252;2023-04-09T03:31:30;30.73;;;17.05;;
20619;SDS011;10469;42.720;23.252;2023-04-09T03:33:56;28.08;;;17.13;;
20619;SDS011;10469;42.720;23.252;2023-04-09T03:36:22;28.90;;;17.30;;
20619;SDS011;10469;42.720;23.252;2023-04-09T03:38:48;28.88;;;17.50;;
20619;SDS011;10469;42.720;23.252;2023-04-09T03:41:14;31.27;;;18.17;;
20619;SDS011;10469;42.720;23.252;2023-04-09T03:43:40;28.30;;;17.65;;
20619;SDS011;10469;42.720;23.252;2023-04-09T03:46:15;29.25;;;17.60;;
20619;SDS011;10469;42.720;23.252;2023-04-09T03:48:42;28.40;;;17.33;;
20619;SDS011;10469;42.720;23.252;2023-04-09T03:51:12;29.65;;;17.67;;
20619;SDS011;10469;42.720;23.252;2023-04-09T03:53:39;30.95;;;17.73;;
20619;SDS011;10469;42.720;23.252;2023-04-09T03:56:06;25.85;;;15.73;;
20619;SDS011;10469;42.720;23.252;2023-04-09T03:58:32;26.30;;;16.63;;
20619;SDS011;10469;42.720;23.252;2023-04-09T04:00:58;27.48;;;16.73;;
20619;SDS011;10469;42.720;23.252;2023-04-09T04:03:24;27.67;;;16.85;;
20619;SDS011;10469;42.720;23.252;2023-04-09T04:05:49;26.08;;;16.90;;
20619;SDS011;10469;42.720;23.252;2023-04-09T04:08:15;26.42;;;15.85;;
20619;SDS011;10469;42.720;23.252;2023-04-09T04:10:41;30.38;;;17.75;;
20619;SDS011;10469;42.720;23.252;2023-04-09T04:13:06;28.40;;;16.98;;
20619;SDS011;10469;42.720;23.252;2023-04-09T04:15:33;28.52;;;18.25;;
20619;SDS011;10469;42.720;23.252;2023-04-09T04:18:03;32.63;;;18.42;;
20619;SDS011;10469;42.720;23.252;2023-04-09T04:20:31;30.25;;;18.92;;
20619;SDS011;10469;42.720;23.252;2023-04-09T04:22:57;31.73;;;19.00;;
20619;SDS011;10469;42.720;23.252;2023-04-09T04:25:23;31.35;;;20.10;;
20619;SDS011;10469;42.720;23.252;2023-04-09T04:27:49;35.30;;;23.35;;
20619;SDS011;10469;42.720;23.252;2023-04-09T04:30:14;37.13;;;21.85;;
20619;SDS011;10469;42.720;23.252;2023-04-09T04:32:40;31.63;;;18.73;;
20619;SDS011;10469;42.720;23.252;2023-04-09T04:35:07;35.17;;;21.95;;
20619;SDS011;10469;42.720;23.252;2023-04-09T04:37:33;31.00;;;20.63;;
20619;SDS011;10469;42.720;23.252;2023-04-09T04:40:01;32.20;;;19.52;;
20619;SDS011;10469;42.720;23.252;2023-04-09T04:42:28;31.30;;;19.73;;
20619;SDS011;10469;42.720;23.252;2023-04-09T04:44:54;35.20;;;20.08;;
20619;SDS011;10469;42.720;23.252;2023-04-09T04:47:21;29.70;;;19.35;;
20619;SDS011;10469;42.720;23.252;2023-04-09T04:49:46;31.85;;;20.58;;
20619;SDS011;10469;42.720;23.252;2023-04-09T04:52:12;35.13;;;20.52;;
20619;SDS011;10469;42.720;23.252;2023-04-09T04:54:38;32.08;;;19.73;;
20619;SDS011;10469;42.720;23.252;2023-04-09T04:57:04;33.83;;;21.48;;
20619;SDS011;10469;42.720;23.252;2023-04-09T04:59:30;39.67;;;22.25;;
20619;SDS011;10469;42.720;23.252;2023-04-09T05:01:56;36.33;;;21.45;;
20619;SDS011;10469;42.720;23.252;2023-04-09T05:04:22;34.30;;;20.98;;
20619;SDS011;10469;42.720;23.252;2023-04-09T05:06:48;30.67;;;18.77;;
20619;SDS011;10469;42.720;23.252;2023-04-09T05:09:16;31.23;;;19.33;;
20619;SDS011;10469;42.720;23.252;2023-04-09T05:11:42;36.58;;;19.63;;
20619;SDS011;10469;42.720;23.252;2023-04-09T05:14:08;31.58;;;19.92;;
20619;SDS011;10469;42.720;23.252;2023-04-09T05:16:33;31.48;;;18.55;;
20619;SDS011;10469;42.720;23.252;2023-04-09T05:18:59;29.05;;;18.35;;
20619;SDS011;10469;42.720;23.252;2023-04-09T05:21:28;26.02;;;17.92;;
20619;SDS011;10469;42.720;23.252;2023-04-09T05:23:56;24.77;;;17.40;;
20619;SDS011;10469;42.720;23.252;2023-04-09T05:26:25;30.42;;;18.52;;
20619;SDS011;10469;42.720;23.252;2023-04-09T05:28:53;29.88;;;18.65;;
20619;SDS011;10469;42.720;23.252;2023-04-09T05:31:37;28.95;;;17.90;;
20619;SDS011;10469;42.720;23.252;2023-04-09T05:34:04;31.35;;;17.55;;
20619;SDS011;10469;42.720;23.252;2023-04-09T05:36:30;29.25;;;17.63;;
20619;SDS011;10469;42.720;23.252;2023-04-09T05:38:57;25.13;;;16.33;;
20619;SDS011;10469;42.720;23.252;2023-04-09T05:41:23;24.98;;;16.17;;
20619;SDS011;10469;42.720;23.252;2023-04-09T05:43:49;28.15;;;15.20;;
20619;SDS011;10469;42.720;23.252;2023-04-09T05:46:18;24.98;;;15.90;;
20619;SDS011;10469;42.720;23.252;2023-04-09T05:48:44;22.73;;;13.60;;
20619;SDS011;10469;42.720;23.252;2023-04-09T05:51:13;26.02;;;15.73;;
20619;SDS011;10469;42.720;23.252;2023-04-09T05:53:40;22.48;;;14.15;;
20619;SDS011;10469;42.720;23.252;2023-04-09T05:56:13;24.17;;;13.85;;
20619;SDS011;10469;42.720;23.252;2023-04-09T05:58:40;25.70;;;13.60;;
20619;SDS011;10469;42.720;23.252;2023-04-09T06:01:08;21.55;;;13.85;;
20619;SDS011;10469;42.720;23.252;2023-04-09T06:03:34;20.15;;;12.75;;
20619;SDS011;10469;42.720;23.252;2023-04-09T06:06:00;20.00;;;12.48;;
20619;SDS011;10469;42.720;23.252;2023-04-09T06:08:31;21.13;;;12.82;;
20619;SDS011;10469;42.720;23.252;2023-04-09T06:10:57;20.80;;;11.70;;
20619;SDS011;10469;42.720;23.252;2023-04-09T06:13:23;21.73;;;11.50;;
20619;SDS011;10469;42.720;23.252;2023-04-09T06:15:49;23.05;;;13.43;;
20619;SDS011;10469;42.720;23.252;2023-04-09T06:18:15;20.73;;;12.25;;
20619;SDS011;10469;42.720;23.252;2023-04-09T06:20:43;19.45;;;11.85;;
20619;SDS011;10469;42.720;23.252;2023-04-09T06:23:08;19.77;;;12.20;;
20619;SDS011;10469;42.720;23.252;2023-04-09T06:25:35;17.17;;;11.75;;
20619;SDS011;10469;42.720;23.252;2023-04-09T06:28:01;16.20;;;11.23;;
20619;SDS011;10469;42.720;23.252;2023-04-09T06:30:27;15.23;;;10.48;;
20619;SDS011;10469;42.720;23.252;2023-04-09T06:32:53;18.88;;;11.80;;
20619;SDS011;10469;42.720;23.252;2023-04-09T06:35:19;15.50;;;11.02;;
20619;SDS011;10469;42.720;23.252;2023-04-09T06:37:45;16.08;;;10.90;;
20619;SDS011;10469;42.720;23.252;2023-04-09T06:40:11;12.60;;;9.20;;
20619;SDS011;10469;42.720;23.252;2023-04-09T06:42:38;16.60;;;10.13;;
20619;SDS011;10469;42.720;23.252;2023-04-09T06:45:05;13.63;;;9.68;;
20619;SDS011;10469;42.720;23.252;2023-04-09T06:47:33;15.15;;;10.35;;
20619;SDS011;10469;42.720;23.252;2023-04-09T06:50:02;15.00;;;10.40;;
20619;SDS011;10469;42.720;23.252;2023-04-09T06:52:28;17.60;;;9.93;;
20619;SDS011;10469;42.720;23.252;2023-04-09T06:54:55;14.02;;;9.57;;
20619;SDS011;10469;42.720;23.252;2023-04-09T06:57:20;13.52;;;10.30;;
20619;SDS011;10469;42.720;23.252;2023-04-09T06:59:46;12.93;;;8.65;;
20619;SDS011;10469;42.720;23.252;2023-04-09T07:02:12;12.68;;;9.02;;
20619;SDS011;10469;42.720;23.252;2023-04-09T07:04:39;11.50;;;9.15;;
20619;SDS011;10469;42.720;23.252;2023-04-09T07:07:08;11.88;;;8.88;;
20619;SDS011;10469;42.720;23.252;2023-04-09T07:09:37;13.00;;;9.73;;
20619;SDS011;10469;42.720;23.252;2023-04-09T07:12:03;13.88;;;9.80;;
20619;SDS011;10469;42.720;23.252;2023-04-09T07:14:29;16.25;;;9.85;;
20619;SDS011;10469;42.720;23.252;2023-04-09T07:16:55;16.27;;;9.95;;
20619;SDS011;10469;42.720;23.252;2023-04-09T07:19:21;11.30;;;8.98;;
20619;SDS011;10469;42.720;23.252;2023-04-09T07:21:47;13.68;;;9.15;;
20619;SDS011;10469;42.720;23.252;2023-04-09T07:24:13;13.70;;;9.30;;
20619;SDS011;10469;42.720;23.252;2023-04-09T07:26:38;17.75;;;10.93;;
20619;SDS011;10469;42.720;23.252;2023-04-09T07:29:05;13.13;;;9.45;;
20619;SDS011;10469;42.720;23.252;2023-04-09T07:31:32;14.60;;;9.75;;
20619;SDS011;10469;42.720;23.252;2023-04-09T07:33:58;22.08;;;11.50;;
20619;SDS011;10469;42.720;23.252;2023-04-09T07:36:25;16.55;;;10.35;;
20619;SDS011;10469;42.720;23.252;2023-04-09T07:38:52;13.85;;;9.40;;
20619;SDS011;10469;42.720;23.252;2023-04-09T07:41:18;18.35;;;10.93;;
20619;SDS011;10469;42.720;23.252;2023-04-09T07:43:43;14.90;;;10.60;;
20619;SDS011;10469;42.720;23.252;2023-04-09T07:46:10;14.75;;;9.45;;
20619;SDS011;10469;42.720;23.252;2023-04-09T07:48:43;12.20;;;8.25;;
20619;SDS011;10469;42.720;23.252;2023-04-09T07:51:09;14.93;;;9.75;;
20619;SDS011;10469;42.720;23.252;2023-04-09T07:53:36;14.93;;;9.18;;
20619;SDS011;10469;42.720;23.252;2023-04-09T07:56:02;13.85;;;9.63;;
20619;SDS011;10469;42.720;23.252;2023-04-09T07:58:28;15.30;;;9.25;;
20619;SDS011;10469;42.720;23.252;2023-04-09T08:00:53;10.85;;;8.27;;
20619;SDS011;10469;42.720;23.252;2023-04-09T08:03:19;13.90;;;9.27;;
20619;SDS011;10469;42.720;23.252;2023-04-09T08:05:46;12.32;;;8.18;;
20619;SDS011;10469;42.720;23.252;2023-04-09T08:08:12;11.15;;;8.07;;
20619;SDS011;10469;42.720;23.252;2023-04-09T08:10:38;9.98;;;7.65;;
20619;SDS011;10469;42.720;23.252;2023-04-09T08:13:03;12.02;;;8.55;;
20619;SDS011;10469;42.720;23.252;2023-04-09T08:15:30;11.90;;;8.73;;
20619;SDS011;10469;42.720;23.252;2023-04-09T08:17:56;14.65;;;7.90;;
20619;SDS011;10469;42.720;23.252;2023-04-09T08:20:22;11.65;;;7.80;;
20619;SDS011;10469;42.720;23.252;2023-04-09T08:22:48;11.20;;;7.18;;
20619;SDS011;10469;42.720;23.252;2023-04-09T08:25:17;12.30;;;8.05;;
20619;SDS011;10469;42.720;23.252;2023-04-09T08:27:43;10.95;;;8.07;;
20619;SDS011;10469;42.720;23.252;2023-04-09T08:30:14;9.65;;;7.55;;
20619;SDS011;10469;42.720;23.252;2023-04-09T10:05:26;9.02;;;7.05;;
20619;SDS011;10469;42.720;23.252;2023-04-09T10:07:56;11.63;;;7.97;;
20619;SDS011;10469;42.720;23.252;2023-04-09T10:10:22;9.30;;;7.53;;
20619;SDS011;10469;42.720;23.252;2023-04-09T10:12:50;7.82;;;6.35;;
20619;SDS011;10469;42.720;23.252;2023-04-09T10:15:17;9.52;;;6.93;;
20619;SDS011;10469;42.720;23.252;2023-04-09T10:17:44;8.35;;;6.13;;
20619;SDS011;10469;42.720;23.252;2023-04-09T10:20:11;11.23;;;7.60;;
20619;SDS011;10469;42.720;23.252;2023-04-09T10:22:48;8.70;;;6.40;;
20619;SDS011;10469;42.720;23.252;2023-04-09T10:25:18;9.20;;;6.60;;
20619;SDS011;10469;42.720;23.252;2023-04-09T10:27:49;11.90;;;6.72;;
20619;SDS011;10469;42.720;23.252;2023-04-09T10:30:33;9.63;;;6.78;;
20619;SDS011;10469;42.720;23.252;2023-04-09T10:33:13;8.10;;;6.50;;
20619;SDS011;10469;42.720;23.252;2023-04-09T10:35:40;7.22;;;5.82;;
20619;SDS011;10469;42.720;23.252;2023-04-09T10:38:08;8.00;;;6.65;;
20619;SDS011;10469;42.720;23.252;2023-04-09T10:40:41;7.28;;;5.38;;
20619;SDS011;10469;42.720;23.252;2023-04-09T10:43:13;7.68;;;6.40;;
20619;SDS011;10469;42.720;23.252;2023-04-09T10:45:44;8.25;;;6.57;;
20619;SDS011;10469;42.720;23.252;2023-04-09T10:48:12;7.22;;;6.43;;
20619;SDS011;10469;42.720;23.252;2023-04-09T10:50:38;6.60;;;5.82;;
20619;SDS011;10469;42.720;23.252;2023-04-09T10:53:12;7.65;;;6.15;;
20619;SDS011;10469;42.720;23.252;2023-04-09T10:55:53;6.70;;;5.75;;
20619;SDS011;10469;42.720;23.252;2023-04-09T10:58:20;12.45;;;5.75;;
20619;SDS011;10469;42.720;23.252;2023-04-09T11:00:46;7.20;;;5.57;;
20619;SDS011;10469;42.720;23.252;2023-04-09T11:03:18;7.13;;;6.07;;
20619;SDS011;10469;42.720;23.252;2023-04-09T11:05:59;6.68;;;5.97;;
20619;SDS011;10469;42.720;23.252;2023-04-09T11:08:27;10.38;;;5.57;;
20619;SDS011;10469;42.720;23.252;2023-04-09T11:10:54;7.43;;;6.03;;
20619;SDS011;10469;42.720;23.252;2023-04-09T11:13:23;6.43;;;5.18;;
20619;SDS011;10469;42.720;23.252;2023-04-09T11:15:49;10.18;;;6.18;;
20619;SDS011;10469;42.720;23.252;2023-04-09T11:20:54;8.15;;;6.45;;
20619;SDS011;10469;42.720;23.252;2023-04-09T11:23:25;7.65;;;5.90;;
20619;SDS011;10469;42.720;23.252;2023-04-09T11:25:53;8.90;;;6.28;;
20619;SDS011;10469;42.720;23.252;2023-04-09T11:28:21;7.35;;;5.70;;
20619;SDS011;10469;42.720;23.252;2023-04-09T11:30:51;8.25;;;6.30;;
20619;SDS011;10469;42.720;23.252;2023-04-09T11:33:19;9.13;;;5.45;;
20619;SDS011;10469;42.720;23.252;2023-04-09T11:35:47;6.95;;;5.20;;
20619;SDS011;10469;42.720;23.252;2023-04-09T11:38:13;6.80;;;5.43;;
20619;SDS011;10469;42.720;23.252;2023-04-09T11:40:40;6.30;;;5.57;;
20619;SDS011;10469;42.720;23.252;2023-04-09T11:43:13;5.82;;;4.72;;
20619;SDS011;10469;42.720;23.252;2023-04-09T11:45:44;6.43;;;4.95;;
20619;SDS011;10469;42.720;23.252;2023-04-09T11:48:16;6.75;;;5.00;;
20619;SDS011;10469;42.720;23.252;2023-04-09T11:50:47;8.27;;;5.75;;
20619;SDS011;10469;42.720;23.252;2023-04-09T11:53:14;8.18;;;5.53;;
20619;SDS011;10469;42.720;23.252;2023-04-09T11:55:41;13.15;;;8.90;;
20619;SDS011;10469;42.720;23.252;2023-04-09T11:58:09;16.60;;;10.00;;
20619;SDS011;10469;42.720;23.252;2023-04-09T12:00:38;15.23;;;10.20;;
20619;SDS011;10469;42.720;23.252;2023-04-09T12:03:05;13.13;;;8.95;;
20619;SDS011;10469;42.720;23.252;2023-04-09T12:05:31;13.27;;;9.10;;
20619;SDS011;10469;42.720;23.252;2023-04-09T12:07:59;18.75;;;9.60;;
20619;SDS011;10469;42.720;23.252;2023-04-09T12:10:47;11.48;;;8.30;;
20619;SDS011;10469;42.720;23.252;2023-04-09T12:13:19;11.05;;;7.75;;
20619;SDS011;10469;42.720;23.252;2023-04-09T12:15:47;14.55;;;8.57;;
20619;SDS011;10469;42.720;23.252;2023-04-09T12:18:14;12.32;;;8.85;;
20619;SDS011;10469;42.720;23.252;2023-04-09T12:20:41;10.52;;;8.05;;
20619;SDS011;10469;42.720;23.252;2023-04-09T12:23:08;11.38;;;7.80;;
20619;SDS011;10469;42.720;23.252;2023-04-09T12:25:36;11.60;;;8.23;;
20619;SDS011;10469;42.720;23.252;2023-04-09T12:28:04;10.98;;;8.38;;
20619;SDS011;10469;42.720;23.252;2023-04-09T12:30:31;12.05;;;8.55;;
20619;SDS011;10469;42.720;23.252;2023-04-09T12:32:57;13.52;;;9.60;;
20619;SDS011;10469;42.720;23.252;2023-04-09T12:35:23;10.38;;;7.63;;
20619;SDS011;10469;42.720;23.252;2023-04-09T12:37:53;10.18;;;7.90;;
20619;SDS011;10469;42.720;23.252;2023-04-09T12:40:19;17.75;;;8.13;;
20619;SDS011;10469;42.720;23.252;2023-04-09T12:42:56;11.13;;;8.30;;
20619;SDS011;10469;42.720;23.252;2023-04-09T12:45:30;9.50;;;7.47;;
20619;SDS011;10469;42.720;23.252;2023-04-09T12:48:00;9.98;;;7.47;;
20619;SDS011;10469;42.720;23.252;2023-04-09T12:50:28;11.05;;;6.70;;
20619;SDS011;10469;42.720;23.252;2023-04-09T12:53:01;10.30;;;7.25;;
20619;SDS011;10469;42.720;23.252;2023-04-09T12:55:27;11.90;;;8.40;;
20619;SDS011;10469;42.720;23.252;2023-04-09T12:57:54;12.25;;;7.63;;
20619;SDS011;10469;42.720;23.252;2023-04-09T13:00:26;10.18;;;7.25;;
20619;SDS011;10469;42.720;23.252;2023-04-09T13:02:59;10.50;;;6.70;;
20619;SDS011;10469;42.720;23.252;2023-04-09T13:05:25;9.82;;;7.30;;
20619;SDS011;10469;42.720;23.252;2023-04-09T13:07:51;13.70;;;8.45;;
20619;SDS011;10469;42.720;23.252;2023-04-09T13:10:17;11.27;;;7.97;;
20619;SDS011;10469;42.720;23.252;2023-04-09T13:12:42;8.30;;;6.78;;
20619;SDS011;10469;42.720;23.252;2023-04-09T13:15:08;13.00;;;7.45;;
20619;SDS011;10469;42.720;23.252;2023-04-09T13:17:38;9.07;;;6.68;;
20619;SDS011;10469;42.720;23.252;2023-04-09T13:20:03;10.63;;;7.15;;
20619;SDS011;10469;42.720;23.252;2023-04-09T13:22:34;8.55;;;7.05;;
20619;SDS011;10469;42.720;23.252;2023-04-09T13:25:00;8.45;;;5.88;;
20619;SDS011;10469;42.720;23.252;2023-04-09T13:27:28;8.93;;;6.70;;
20619;SDS011;10469;42.720;23.252;2023-04-09T13:29:57;10.45;;;7.82;;
20619;SDS011;10469;42.720;23.252;2023-04-09T13:32:26;19.75;;;9.70;;
20619;SDS011;10469;42.720;23.252;2023-04-09T13:34:52;14.43;;;9.88;;
20619;SDS011;10469;42.720;23.252;2023-04-09T13:37:19;14.82;;;9.73;;
20619;SDS011;10469;42.720;23.252;2023-04-09T13:39:45;15.90;;;11.00;;
20619;SDS011;10469;42.720;23.252;2023-04-09T13:42:10;16.27;;;10.57;;
20619;SDS011;10469;42.720;23.252;2023-04-09T13:44:38;14.80;;;10.05;;
20619;SDS011;10469;42.720;23.252;2023-04-09T13:47:07;15.65;;;10.43;;
20619;SDS011;10469;42.720;23.252;2023-04-09T13:49:35;14.90;;;10.18;;
20619;SDS011;10469;42.720;23.252;2023-04-09T13:52:01;14.30;;;10.35;;
20619;SDS011;10469;42.720;23.252;2023-04-09T13:54:28;16.02;;;10.10;;
20619;SDS011;10469;42.720;23.252;2023-04-09T13:56:56;17.83;;;11.25;;
20619;SDS011;10469;42.720;23.252;2023-04-09T13:59:21;15.88;;;10.52;;
20619;SDS011;10469;42.720;23.252;2023-04-09T14:01:47;16.33;;;10.60;;
20619;SDS011;10469;42.720;23.252;2023-04-09T14:04:13;18.92;;;10.88;;
20619;SDS011;10469;42.720;23.252;2023-04-09T14:06:39;14.93;;;10.70;;
20619;SDS011;10469;42.720;23.252;2023-04-09T14:09:06;15.57;;;10.32;;
20619;SDS011;10469;42.720;23.252;2023-04-09T14:11:32;19.83;;;10.80;;
20619;SDS011;10469;42.720;23.252;2023-04-09T14:13:58;18.42;;;11.00;;
20619;SDS011;10469;42.720;23.252;2023-04-09T14:16:24;21.30;;;11.23;;
20619;SDS011;10469;42.720;23.252;2023-04-09T14:18:49;15.38;;;10.23;;
20619;SDS011;10469;42.720;23.252;2023-04-09T14:21:18;17.23;;;11.77;;
20619;SDS011;10469;42.720;23.252;2023-04-09T14:23:44;20.63;;;13.27;;
20619;SDS011;10469;42.720;23.252;2023-04-09T14:26:10;20.33;;;13.13;;
20619;SDS011;10469;42.720;23.252;2023-04-09T14:28:36;17.98;;;11.98;;
20619;SDS011;10469;42.720;23.252;2023-04-09T14:31:04;19.33;;;11.98;;
20619;SDS011;10469;42.720;23.252;2023-04-09T14:33:31;20.23;;;12.48;;
20619;SDS011;10469;42.720;23.252;2023-04-09T14:35:56;17.48;;;11.73;;
20619;SDS011;10469;42.720;23.252;2023-04-09T14:38:22;18.83;;;12.05;;
20619;SDS011;10469;42.720;23.252;2023-04-09T14:40:49;17.10;;;10.88;;
20619;SDS011;10469;42.720;23.252;2023-04-09T15:36:12;18.65;;;11.68;;
20619;SDS011;10469;42.720;23.252;2023-04-09T15:38:41;19.92;;;12.23;;
20619;SDS011;10469;42.720;23.252;2023-04-09T15:41:07;14.90;;;11.35;;
20619;SDS011;10469;42.720;23.252;2023-04-09T15:43:34;16.60;;;10.50;;
20619;SDS011;10469;42.720;23.252;2023-04-09T15:46:05;16.92;;;11.38;;
20619;SDS011;10469;42.720;23.252;2023-04-09T15:48:37;17.60;;;10.48;;
20619;SDS011;10469;42.720;23.252;2023-04-09T15:51:02;19.67;;;11.85;;
20619;SDS011;10469;42.720;23.252;2023-04-09T15:53:29;17.08;;;11.65;;
20619;SDS011;10469;42.720;23.252;2023-04-09T15:55:57;15.68;;;10.95;;
20619;SDS011;10469;42.720;23.252;2023-04-09T15:58:25;14.77;;;10.57;;
20619;SDS011;10469;42.720;23.252;2023-04-09T16:00:56;17.13;;;10.35;;
20619;SDS011;10469;42.720;23.252;2023-04-09T16:03:30;15.23;;;11.07;;
20619;SDS011;10469;42.720;23.252;2023-04-09T16:06:05;19.67;;;12.25;;
20619;SDS011;10469;42.720;23.252;2023-04-09T16:08:37;17.95;;;11.52;;
20619;SDS011;10469;42.720;23.252;2023-04-09T16:11:06;17.02;;;11.88;;
20619;SDS011;10469;42.720;23.252;2023-04-09T16:13:32;19.25;;;12.63;;
20619;SDS011;10469;42.720;23.252;2023-04-09T16:15:59;17.52;;;11.43;;
20619;SDS011;10469;42.720;23.252;2023-04-09T16:18:25;15.18;;;10.52;;
20619;SDS011;10469;42.720;23.252;2023-04-09T16:20:57;18.88;;;11.32;;
20619;SDS011;10469;42.720;23.252;2023-04-09T16:23:24;19.15;;;12.48;;
20619;SDS011;10469;42.720;23.252;2023-04-09T16:25:52;17.38;;;11.70;;
20619;SDS011;10469;42.720;23.252;2023-04-09T16:28:18;17.70;;;11.93;;
20619;SDS011;10469;42.720;23.252;2023-04-09T16:30:48;19.42;;;11.18;;
20619;SDS011;10469;42.720;23.252;2023-04-09T16:33:15;19.95;;;12.38;;
20619;SDS011;10469;42.720;23.252;2023-04-09T16:35:41;16.95;;;12.00;;
20619;SDS011;10469;42.720;23.252;2023-04-09T16:38:06;19.23;;;12.77;;
20619;SDS011;10469;42.720;23.252;2023-04-09T16:40:32;20.83;;;12.50;;
20619;SDS011;10469;42.720;23.252;2023-04-09T16:42:59;17.00;;;11.15;;
20619;SDS011;10469;42.720;23.252;2023-04-09T16:45:27;19.77;;;11.43;;
20619;SDS011;10469;42.720;23.252;2023-04-09T16:47:56;19.60;;;12.45;;
20619;SDS011;10469;42.720;23.252;2023-04-09T16:50:22;19.08;;;13.10;;
20619;SDS011;10469;42.720;23.252;2023-04-09T16:52:58;18.95;;;11.95;;
20619;SDS011;10469;42.720;23.252;2023-04-09T16:55:28;17.70;;;12.38;;
20619;SDS011;10469;42.720;23.252;2023-04-09T16:57:57;16.23;;;11.57;;
20619;SDS011;10469;42.720;23.252;2023-04-09T17:00:23;16.20;;;11.40;;
20619;SDS011;10469;42.720;23.252;2023-04-09T17:02:54;18.33;;;12.30;;
20619;SDS011;10469;42.720;23.252;2023-04-09T17:05:21;20.55;;;12.00;;
20619;SDS011;10469;42.720;23.252;2023-04-09T17:07:47;21.98;;;12.80;;
20619;SDS011;10469;42.720;23.252;2023-04-09T17:10:13;23.20;;;12.73;;
20619;SDS011;10469;42.720;23.252;2023-04-09T17:12:39;20.13;;;13.35;;
20619;SDS011;10469;42.720;23.252;2023-04-09T17:15:06;20.75;;;12.32;;
20619;SDS011;10469;42.720;23.252;2023-04-09T17:17:32;22.88;;;13.70;;
20619;SDS011;10469;42.720;23.252;2023-04-09T17:19:59;21.38;;;13.85;;
20619;SDS011;10469;42.720;23.252;2023-04-09T17:22:25;22.75;;;14.25;;
20619;SDS011;10469;42.720;23.252;2023-04-09T17:24:52;25.17;;;16.52;;
20619;SDS011;10469;42.720;23.252;2023-04-09T17:27:17;23.27;;;14.88;;
20619;SDS011;10469;42.720;23.252;2023-04-09T17:29:47;23.50;;;14.60;;
20619;SDS011;10469;42.720;23.252;2023-04-09T17:32:13;20.95;;;14.45;;
20619;SDS011;10469;42.720;23.252;2023-04-09T17:34:39;22.70;;;13.95;;
20619;SDS011;10469;42.720;23.252;2023-04-09T17:37:04;23.35;;;14.60;;
20619;SDS011;10469;42.720;23.252;2023-04-09T17:39:31;25.85;;;15.68;;
20619;SDS011;10469;42.720;23.252;2023-04-09T17:41:57;21.98;;;14.95;;
20619;SDS011;10469;42.720;23.252;2023-04-09T18:18:22;23.00;;;15.02;;
20619;SDS011;10469;42.720;23.252;2023-04-09T18:20:48;24.38;;;14.75;;
20619;SDS011;10469;42.720;23.252;2023-04-09T18:23:16;18.13;;;12.35;;
20619;SDS011;10469;42.720;23.252;2023-04-09T18:25:42;19.42;;;12.63;;
20619;SDS011;10469;42.720;23.252;2023-04-09T18:28:08;17.35;;;11.55;;
20619;SDS011;10469;42.720;23.252;2023-04-09T18:30:34;18.95;;;10.27;;
20619;SDS011;10469;42.720;23.252;2023-04-09T18:33:03;12.25;;;8.57;;
20619;SDS011;10469;42.720;23.252;2023-04-09T18:35:30;12.40;;;8.93;;
20619;SDS011;10469;42.720;23.252;2023-04-09T18:37:56;11.52;;;8.48;;
20619;SDS011;10469;42.720;23.252;2023-04-09T18:40:22;13.75;;;8.48;;
20619;SDS011;10469;42.720;23.252;2023-04-09T18:42:49;11.57;;;8.18;;
20619;SDS011;10469;42.720;23.252;2023-04-09T18:45:18;10.43;;;7.90;;
20619;SDS011;10469;42.720;23.252;2023-04-09T18:47:44;11.82;;;8.40;;
20619;SDS011;10469;42.720;23.252;2023-04-09T18:50:11;13.25;;;8.32;;
20619;SDS011;10469;42.720;23.252;2023-04-09T18:52:42;12.55;;;8.48;;
20619;SDS011;10469;42.720;23.252;2023-04-09T18:55:07;11.10;;;8.00;;
20619;SDS011;10469;42.720;23.252;2023-04-09T18:57:35;10.50;;;7.50;;
20619;SDS011;10469;42.720;23.252;2023-04-09T19:00:01;11.32;;;8.00;;
20619;SDS011;10469;42.720;23.252;2023-04-09T19:02:28;11.32;;;7.93;;
20619;SDS011;10469;42.720;23.252;2023-04-09T19:04:54;13.07;;;8.18;;
20619;SDS011;10469;42.720;23.252;2023-04-09T19:07:20;11.38;;;8.20;;
20619;SDS011;10469;42.720;23.252;2023-04-09T19:09:46;13.27;;;8.30;;
20619;SDS011;10469;42.720;23.252;2023-04-09T19:12:12;12.02;;;8.65;;
20619;SDS011;10469;42.720;23.252;2023-04-09T19:14:37;11.48;;;8.40;;
20619;SDS011;10469;42.720;23.252;2023-04-09T19:17:06;11.95;;;8.25;;